Time;durP1;ratioP1;P1;durP2;ratioP2;P2;SDS_P1;SDS_P2;PMS_P1;PMS_P2;Temp;Humidity;BMP_temperature;BMP_pressure;BME280_temperature;BME280_humidity;BME280_pressure;Samples;Min_cycle;Max_cycle;Signal;HPM_P1;HPM_P2
2023/07/09 00:01:49;;;;;;;;;;;;;;;27.23;45.71;101328.69;5023612;28;20378;-91
2023/07/09 00:04:15;;;;;;;;;;;;;;;27.23;45.67;101326.88;5018962;28;19913;-90
2023/07/09 00:06:40;;;;;;;;;;;;;;;27.23;45.71;101334.06;5008138;28;19913;-90
2023/07/09 00:09:06;;;;;;;;;;;;;;;27.23;45.43;101332.25;4987630;28;20432;-91
2023/07/09 00:11:32;;;;;;;;;;;;;;;27.22;45.54;101343.91;4999985;28;20363;-91
2023/07/09 00:13:59;;;;;;;;;;;;;;;27.23;45.67;101339.41;4986271;28;19920;-88
2023/07/09 00:16:24;;;;;;;;;;;;;;;27.19;45.75;101335.81;4996919;28;19923;-88
2023/07/09 00:18:50;;;;;;;;;;;;;;;27.23;45.51;101328.69;5027533;28;20012;-89
2023/07/09 00:21:16;;;;;;;;;;;;;;;27.19;45.49;101328.66;5027006;28;19929;-89
2023/07/09 00:23:42;;;;;;;;;;;;;;;27.19;45.74;101330.44;4996596;28;19991;-89
2023/07/09 00:26:09;;;;;;;;;;;;;;;27.19;45.55;101325.09;5031960;28;20373;-88
2023/07/09 00:28:36;;;;;;;;;;;;;;;27.20;45.74;101318.84;5026207;28;20015;-84
2023/07/09 00:31:03;;;;;;;;;;;;;;;27.20;45.75;101317.03;5008165;28;19923;-90
2023/07/09 00:33:31;;;;;;;;;;;;;;;27.18;45.70;101316.16;5003997;28;19917;-88
2023/07/09 00:35:57;;;;;;;;;;;;;;;27.17;45.52;101314.34;5027569;28;19924;-90
2023/07/09 00:38:23;;;;;;;;;;;;;;;27.16;45.66;101314.41;5014780;28;19913;-88
2023/07/09 00:40:59;;;;;;;;;;;;;;;27.17;45.69;101308.13;5023923;28;19918;-88
2023/07/09 00:43:24;;;;;;;;;;;;;;;27.15;45.51;101308.13;5026612;28;20302;-90
2023/07/09 00:46:27;;;;;;;;;;;;;;;27.13;45.82;101301.00;5020580;28;19920;-89
2023/07/09 00:48:54;;;;;;;;;;;;;;;27.12;45.85;101305.47;4951831;29;19964;-89
2023/07/09 00:51:21;;;;;;;;;;;;;;;27.11;45.70;101308.16;4976820;28;19952;-89
2023/07/09 00:53:47;;;;;;;;;;;;;;;27.13;45.49;101314.41;4995731;28;20314;-90
2023/07/09 00:56:15;;;;;;;;;;;;;;;27.12;45.62;101312.63;4999596;28;20421;-90
2023/07/09 00:58:42;;;;;;;;;;;;;;;27.08;45.57;101310.88;5023087;28;19913;-89
2023/07/09 01:01:11;;;;;;;;;;;;;;;27.06;45.92;101307.28;4995996;28;19921;-91
2023/07/09 01:03:50;;;;;;;;;;;;;;;27.07;45.67;101311.75;5030630;28;20382;-91
2023/07/09 01:06:16;;;;;;;;;;;;;;;27.06;45.57;101308.19;4998145;28;19978;-90
2023/07/09 01:08:43;;;;;;;;;;;;;;;27.05;45.34;101308.19;5004096;28;20382;-91
2023/07/09 01:11:21;;;;;;;;;;;;;;;27.01;45.62;101307.31;5010510;28;19920;-92
2023/07/09 01:13:47;;;;;;;;;;;;;;;26.96;45.49;101310.00;5015047;28;20020;-89
2023/07/09 01:16:15;;;;;;;;;;;;;;;26.98;45.59;101312.69;5007408;28;19920;-90
2023/07/09 01:18:40;;;;;;;;;;;;;;;27.01;45.31;101313.56;4988010;28;20387;-89
2023/07/09 01:21:15;;;;;;;;;;;;;;;27.01;45.56;101320.72;5006417;28;19921;-89
2023/07/09 01:23:43;;;;;;;;;;;;;;;27.01;45.29;101316.25;4994778;28;19920;-89
2023/07/09 01:26:11;;;;;;;;;;;;;;;26.97;45.57;101310.94;5009616;28;20397;-89
2023/07/09 01:28:36;;;;;;;;;;;;;;;26.94;45.27;101311.81;4994064;28;19949;-89
2023/07/09 01:31:04;;;;;;;;;;;;;;;26.95;45.41;101310.91;4978804;28;19968;-89
2023/07/09 01:33:29;;;;;;;;;;;;;;;26.95;45.24;101310.03;4994168;28;19961;-88
2023/07/09 01:36:00;;;;;;;;;;;;;;;26.93;45.14;101315.41;5014731;28;20382;-90
2023/07/09 01:38:30;;;;;;;;;;;;;;;26.94;45.49;101317.16;4989950;28;19913;-89
2023/07/09 01:40:57;;;;;;;;;;;;;;;26.94;45.40;101316.28;5018316;28;19928;-90
2023/07/09 01:43:24;;;;;;;;;;;;;;;26.92;45.34;101321.63;5004593;28;19945;-89
2023/07/09 01:45:52;;;;;;;;;;;;;;;26.92;45.40;101313.59;5000119;28;19921;-90
2023/07/09 01:48:20;;;;;;;;;;;;;;;26.90;45.66;101312.75;4998003;28;19918;-89
2023/07/09 01:50:46;;;;;;;;;;;;;;;26.90;45.64;101311.84;5005576;28;19917;-89
2023/07/09 01:53:12;;;;;;;;;;;;;;;26.89;45.51;101313.63;5024449;28;19920;-89
2023/07/09 01:55:37;;;;;;;;;;;;;;;26.88;45.58;101319.00;5017385;28;20092;-90
2023/07/09 01:58:07;;;;;;;;;;;;;;;26.86;45.56;101321.69;5017565;28;20015;-89
2023/07/09 02:00:34;;;;;;;;;;;;;;;26.89;45.30;101326.16;5000136;28;19914;-89
2023/07/09 02:03:02;;;;;;;;;;;;;;;26.85;45.42;101338.66;5008819;28;20301;-85
2023/07/09 02:05:33;;;;;;;;;;;;;;;26.84;45.69;101327.94;5006875;28;19964;-91
2023/07/09 02:07:59;;;;;;;;;;;;;;;26.86;45.32;101326.16;5016014;28;19956;-90
2023/07/09 02:10:25;;;;;;;;;;;;;;;26.84;45.22;101336.91;5010132;28;20343;-88
2023/07/09 02:12:50;;;;;;;;;;;;;;;26.83;45.62;101345.81;4999313;28;19968;-88
2023/07/09 02:15:15;;;;;;;;;;;;;;;26.84;45.62;101346.69;5003530;28;19918;-87
2023/07/09 02:17:41;;;;;;;;;;;;;;;26.81;45.81;101343.13;4997961;28;20662;-86
2023/07/09 02:20:08;;;;;;;;;;;;;;;26.79;45.53;101357.44;5016047;28;20390;-88
2023/07/09 02:22:35;;;;;;;;;;;;;;;26.83;45.65;101351.19;5034790;28;20435;-88
2023/07/09 02:25:00;;;;;;;;;;;;;;;26.80;45.71;101356.56;5032200;28;19924;-86
2023/07/09 02:27:26;;;;;;;;;;;;;;;26.76;45.83;101363.72;5026765;28;20306;-88
2023/07/09 02:29:52;;;;;;;;;;;;;;;26.75;45.89;101361.91;5017405;28;19917;-92
2023/07/09 02:32:19;;;;;;;;;;;;;;;26.77;45.75;101364.59;5025708;28;19936;-88
2023/07/09 02:34:48;;;;;;;;;;;;;;;26.73;45.91;101369.09;5029232;28;19924;-88
2023/07/09 02:37:14;;;;;;;;;;;;;;;26.76;45.73;101365.50;5026562;28;19924;-88
2023/07/09 02:39:39;;;;;;;;;;;;;;;26.76;45.87;101376.22;5027727;28;20003;-86
2023/07/09 02:42:05;;;;;;;;;;;;;;;26.72;45.55;101372.66;5025807;28;19933;-88
2023/07/09 02:44:30;;;;;;;;;;;;;;;26.74;45.64;101373.53;5030505;28;19921;-88
2023/07/09 02:46:56;;;;;;;;;;;;;;;26.74;45.77;101376.22;5027599;28;19931;-88
2023/07/09 02:49:21;;;;;;;;;;;;;;;26.69;46.01;101380.72;5028744;28;20011;-88
2023/07/09 02:51:47;;;;;;;;;;;;;;;26.68;45.73;101376.22;5024252;28;20390;-86
2023/07/09 02:54:12;;;;;;;;;;;;;;;26.66;45.89;101377.13;5023529;28;20011;-81
2023/07/09 02:56:38;;;;;;;;;;;;;;;26.68;45.74;101386.94;5027059;28;19918;-87
2023/07/09 02:59:04;;;;;;;;;;;;;;;26.64;46.14;101379.81;5022619;28;19932;-80
2023/07/09 03:01:29;;;;;;;;;;;;;;;26.66;45.73;101385.19;5031937;28;19925;-89
2023/07/09 03:03:55;;;;;;;;;;;;;;;26.64;46.25;101378.94;5035728;28;19916;-89
2023/07/09 03:06:22;;;;;;;;;;;;;;;26.63;45.97;101375.38;5027507;28;19921;-90
2023/07/09 03:08:47;;;;;;;;;;;;;;;26.62;46.17;101389.63;5036269;28;19929;-90
2023/07/09 03:11:13;;;;;;;;;;;;;;;26.61;45.97;101382.53;4996647;28;19921;-89
2023/07/09 03:13:40;;;;;;;;;;;;;;;26.64;45.85;101387.84;5013917;28;19917;-89
2023/07/09 03:16:06;;;;;;;;;;;;;;;26.64;46.15;101381.63;5013129;28;19943;-90
2023/07/09 03:18:31;;;;;;;;;;;;;;;26.63;45.95;101387.84;5010387;28;20401;-89
2023/07/09 03:20:58;;;;;;;;;;;;;;;26.60;46.00;101397.69;4980373;28;20321;-89
2023/07/09 03:23:23;;;;;;;;;;;;;;;26.60;45.97;101395.00;5005866;28;19987;-82
2023/07/09 03:25:49;;;;;;;;;;;;;;;26.57;45.98;101394.13;5010277;28;20433;-83
2023/07/09 03:28:17;;;;;;;;;;;;;;;26.56;46.16;101392.31;5006811;28;20298;-82
2023/07/09 03:30:43;;;;;;;;;;;;;;;26.55;46.19;101395.88;5001751;28;20383;-81
2023/07/09 03:33:09;;;;;;;;;;;;;;;26.57;46.20;101400.38;4989759;28;19932;-86
2023/07/09 03:35:36;;;;;;;;;;;;;;;26.57;46.35;101396.81;5011973;28;19917;-83
2023/07/09 03:38:01;;;;;;;;;;;;;;;26.55;46.25;101383.38;5005873;28;19922;-84
2023/07/09 03:40:27;;;;;;;;;;;;;;;26.54;46.22;101400.38;5002940;28;19928;-83
2023/07/09 03:42:52;;;;;;;;;;;;;;;26.57;46.16;101394.13;5003657;28;20399;-82
2023/07/09 03:45:17;;;;;;;;;;;;;;;26.58;46.22;101402.16;5006617;28;20412;-80
2023/07/09 03:47:43;;;;;;;;;;;;;;;26.57;46.02;101396.81;5006539;28;19917;-84
2023/07/09 03:50:09;;;;;;;;;;;;;;;26.54;46.22;101388.72;4972110;28;19941;-84
2023/07/09 03:52:35;;;;;;;;;;;;;;;26.54;46.11;101400.38;5006365;28;20415;-84
2023/07/09 03:55:01;;;;;;;;;;;;;;;26.47;46.02;101393.22;5010580;28;20383;-83
2023/07/09 03:57:26;;;;;;;;;;;;;;;26.38;46.14;101395.91;5007300;28;19976;-84
2023/07/09 03:59:52;;;;;;;;;;;;;;;26.40;46.23;101386.09;5007210;28;20264;-84
2023/07/09 04:02:17;;;;;;;;;;;;;;;26.44;45.90;101395.91;4993450;28;20385;-83
2023/07/09 04:04:43;;;;;;;;;;;;;;;26.47;46.15;101386.97;4987901;28;20491;-83
2023/07/09 04:07:08;;;;;;;;;;;;;;;26.47;45.77;101390.53;5004598;28;20422;-82
2023/07/09 04:09:33;;;;;;;;;;;;;;;26.40;46.30;101394.13;5004565;28;20797;-79
2023/07/09 04:12:01;;;;;;;;;;;;;;;26.33;45.93;101390.56;5005573;28;20004;-79
2023/07/09 04:14:26;;;;;;;;;;;;;;;26.36;46.14;101389.66;4992473;28;19921;-79
2023/07/09 04:16:52;;;;;;;;;;;;;;;26.42;45.74;101392.34;5009126;28;19917;-79
2023/07/09 04:19:17;;;;;;;;;;;;;;;26.36;46.07;101387.88;5019667;28;20457;-80
2023/07/09 04:21:43;;;;;;;;;;;;;;;26.25;45.79;101394.16;5008988;28;19929;-81
2023/07/09 04:24:08;;;;;;;;;;;;;;;26.36;45.74;101392.34;5029128;28;19929;-81
2023/07/09 04:26:35;;;;;;;;;;;;;;;26.40;45.87;101399.50;5032433;28;20378;-83
2023/07/09 04:29:00;;;;;;;;;;;;;;;26.27;45.98;101400.38;5023730;28;19917;-80
2023/07/09 04:31:26;;;;;;;;;;;;;;;26.30;45.77;101408.41;5023551;28;20333;-81
2023/07/09 04:33:52;;;;;;;;;;;;;;;26.22;45.67;101408.41;5030471;28;19920;-80
2023/07/09 04:36:18;;;;;;;;;;;;;;;26.23;45.58;101412.00;5025247;28;19929;-81
2023/07/09 04:38:43;;;;;;;;;;;;;;;26.17;45.83;101408.41;5033538;28;19916;-80
2023/07/09 04:41:08;;;;;;;;;;;;;;;26.18;45.91;101414.66;5024377;28;20318;-82
2023/07/09 04:43:34;;;;;;;;;;;;;;;26.23;45.48;101412.88;5021884;28;19966;-81
2023/07/09 04:45:59;;;;;;;;;;;;;;;26.21;45.57;101412.00;5030878;28;19932;-82
2023/07/09 04:48:25;;;;;;;;;;;;;;;26.28;45.37;101407.53;5035305;28;20432;-81
2023/07/09 04:50:51;;;;;;;;;;;;;;;26.21;45.84;101398.63;5009617;28;19924;-81
2023/07/09 04:53:17;;;;;;;;;;;;;;;26.29;45.54;101398.59;5015531;28;19921;-81
2023/07/09 04:55:42;;;;;;;;;;;;;;;26.33;45.47;101405.72;5012732;28;19925;-84
2023/07/09 04:58:07;;;;;;;;;;;;;;;26.16;46.10;101395.94;5027836;28;19928;-81
2023/07/09 05:00:33;;;;;;;;;;;;;;;26.05;45.62;101399.50;5032616;28;19964;-83
2023/07/09 05:02:58;;;;;;;;;;;;;;;26.03;45.61;101398.59;5023233;28;19917;-82
2023/07/09 05:05:24;;;;;;;;;;;;;;;26.15;45.44;101393.25;5033284;28;19939;-82
2023/07/09 05:07:50;;;;;;;;;;;;;;;26.18;45.59;101383.44;5021757;28;19975;-82
2023/07/09 05:10:16;;;;;;;;;;;;;;;26.18;45.46;101385.22;5030699;28;19924;-83
2023/07/09 05:12:51;;;;;;;;;;;;;;;26.05;45.94;101388.78;5032541;28;19916;-83
2023/07/09 05:15:17;;;;;;;;;;;;;;;25.96;45.39;101382.53;5025160;28;19921;-82
2023/07/09 05:17:42;;;;;;;;;;;;;;;26.06;45.52;101391.47;5028145;28;19928;-81
2023/07/09 05:20:08;;;;;;;;;;;;;;;26.01;45.35;101393.25;5030583;28;20014;-83
2023/07/09 05:22:33;;;;;;;;;;;;;;;26.00;45.63;101381.66;5026470;28;20390;-82
2023/07/09 05:24:59;;;;;;;;;;;;;;;26.09;45.50;101380.75;5036968;28;19916;-81
2023/07/09 05:27:24;;;;;;;;;;;;;;;26.09;45.61;101386.09;5030416;28;20469;-81
2023/07/09 05:29:49;;;;;;;;;;;;;;;26.17;45.46;101389.69;5027687;28;19925;-81
2023/07/09 05:32:15;;;;;;;;;;;;;;;26.23;46.20;101386.13;5024518;28;20266;-83
2023/07/09 05:34:40;;;;;;;;;;;;;;;26.17;45.32;101391.47;5010960;28;20390;-83
2023/07/09 05:37:06;;;;;;;;;;;;;;;26.11;45.03;101394.16;5016927;28;20348;-82
2023/07/09 05:39:31;;;;;;;;;;;;;;;26.10;45.27;101387.00;5031365;28;19927;-81
2023/07/09 05:41:59;;;;;;;;;;;;;;;26.15;45.35;101382.53;5029698;28;21368;-81
2023/07/09 05:44:24;;;;;;;;;;;;;;;26.08;45.37;101395.03;5019308;28;19917;-81
2023/07/09 05:46:50;;;;;;;;;;;;;;;26.17;45.36;101395.03;5030688;28;20000;-82
2023/07/09 05:49:15;;;;;;;;;;;;;;;26.15;45.57;101395.94;5034781;28;20357;-82
2023/07/09 05:51:41;;;;;;;;;;;;;;;26.19;45.47;101395.03;5029570;28;20511;-83
2023/07/09 05:54:06;;;;;;;;;;;;;;;26.15;45.52;101385.22;5031505;28;20597;-82
2023/07/09 05:56:32;;;;;;;;;;;;;;;26.19;45.48;101395.91;5030067;28;19925;-81
2023/07/09 05:58:57;;;;;;;;;;;;;;;26.14;45.54;101389.69;5026172;28;19921;-82
2023/07/09 06:01:23;;;;;;;;;;;;;;;26.15;45.59;101390.56;5027727;28;19921;-83
2023/07/09 06:03:49;;;;;;;;;;;;;;;25.99;45.55;101387.91;5028752;28;20012;-81
2023/07/09 06:06:16;;;;;;;;;;;;;;;26.03;45.80;101387.91;5004812;28;19921;-79
2023/07/09 06:08:41;;;;;;;;;;;;;;;26.09;45.34;101394.13;5029084;28;19917;-81
2023/07/09 06:11:07;;;;;;;;;;;;;;;25.92;45.56;101387.91;5006934;28;19921;-81
2023/07/09 06:13:32;;;;;;;;;;;;;;;25.95;45.55;101388.81;5022064;28;19960;-82
2023/07/09 06:16:01;;;;;;;;;;;;;;;25.88;45.19;101395.00;5013324;28;19921;-81
2023/07/09 06:18:29;;;;;;;;;;;;;;;25.86;45.51;101395.88;5012007;28;19928;-81
2023/07/09 06:20:58;;;;;;;;;;;;;;;25.90;45.27;101397.72;4997766;28;20283;-82
2023/07/09 06:23:24;;;;;;;;;;;;;;;25.89;45.14;101390.59;5033989;28;20008;-84
2023/07/09 06:25:50;;;;;;;;;;;;;;;25.91;45.35;101383.44;5031531;28;20402;-84
2023/07/09 06:28:17;;;;;;;;;;;;;;;25.92;45.25;101394.13;4988725;28;19922;-82
2023/07/09 06:30:42;;;;;;;;;;;;;;;25.90;45.31;101395.03;5031512;28;20050;-83
2023/07/09 06:33:09;;;;;;;;;;;;;;;25.82;45.05;101388.75;5031106;28;19976;-84
2023/07/09 06:35:35;;;;;;;;;;;;;;;25.75;44.77;101393.19;5007621;28;19971;-82
2023/07/09 06:38:00;;;;;;;;;;;;;;;25.74;44.79;101384.28;5032699;28;20344;-82
2023/07/09 06:40:35;;;;;;;;;;;;;;;25.77;45.16;101383.41;5030717;28;19975;-84
2023/07/09 06:43:00;;;;;;;;;;;;;;;25.80;45.08;101388.72;5020300;28;20386;-82
2023/07/09 06:45:26;;;;;;;;;;;;;;;25.83;44.86;101395.91;5029471;28;19928;-81
2023/07/09 06:47:51;;;;;;;;;;;;;;;25.78;44.67;101394.09;5026978;28;19921;-82
2023/07/09 06:50:19;;;;;;;;;;;;;;;25.83;45.07;101386.06;5011449;28;19921;-82
2023/07/09 06:52:44;;;;;;;;;;;;;;;25.86;44.77;101390.53;5028702;28;19948;-83
2023/07/09 06:55:10;;;;;;;;;;;;;;;25.77;44.63;101397.66;5019776;28;19963;-82
2023/07/09 06:57:35;;;;;;;;;;;;;;;25.77;44.99;101391.41;5028316;28;19917;-81
2023/07/09 07:00:02;;;;;;;;;;;;;;;25.72;44.56;101394.09;5016358;28;19968;-80
2023/07/09 07:02:27;;;;;;;;;;;;;;;25.77;45.05;101400.31;5033101;28;19929;-80
2023/07/09 07:04:52;;;;;;;;;;;;;;;25.65;44.54;101386.03;5031703;28;19918;-80
2023/07/09 07:07:19;;;;;;;;;;;;;;;25.72;44.53;101404.78;5025245;28;19979;-80
2023/07/09 07:09:44;;;;;;;;;;;;;;;25.79;44.85;101389.63;5031773;28;20384;-79
2023/07/09 07:12:10;;;;;;;;;;;;;;;25.79;44.48;101401.22;5026320;28;19951;-81
2023/07/09 07:14:36;;;;;;;;;;;;;;;25.76;44.42;101411.94;5022154;28;19968;-82
2023/07/09 07:17:02;;;;;;;;;;;;;;;25.77;44.34;101396.78;5030605;28;19921;-84
2023/07/09 07:19:27;;;;;;;;;;;;;;;25.75;44.80;101407.47;5027846;28;19924;-83
2023/07/09 07:21:53;;;;;;;;;;;;;;;25.75;44.46;101394.09;5028417;28;19921;-81
2023/07/09 07:24:18;;;;;;;;;;;;;;;25.71;44.54;101386.94;5027554;28;20011;-82
2023/07/09 07:26:44;;;;;;;;;;;;;;;25.82;44.55;101389.63;5012427;28;19917;-83
2023/07/09 07:29:10;;;;;;;;;;;;;;;25.79;44.39;101384.28;5024964;28;20374;-83
2023/07/09 07:31:35;;;;;;;;;;;;;;;25.72;44.24;101391.41;5010576;28;19917;-81
2023/07/09 07:34:01;;;;;;;;;;;;;;;25.70;44.23;101401.22;5028733;28;19921;-82
2023/07/09 07:36:26;;;;;;;;;;;;;;;25.65;44.00;101394.97;5013246;28;19925;-82
2023/07/09 07:38:52;;;;;;;;;;;;;;;25.71;43.81;101389.63;5009719;28;20382;-81
2023/07/09 07:41:43;;;;;;;;;;;;;;;25.81;45.68;101385.19;5032408;28;19935;-94
2023/07/09 07:44:09;;;;;;;;;;;;;;;25.93;44.52;101385.22;5008495;28;20004;-82
2023/07/09 07:46:34;;;;;;;;;;;;;;;25.84;43.86;101377.13;5012848;28;20055;-83
2023/07/09 07:49:00;;;;;;;;;;;;;;;25.81;44.52;101371.81;5005265;28;20310;-82
2023/07/09 07:51:25;;;;;;;;;;;;;;;25.77;43.22;101386.94;5018801;28;19960;-83
2023/07/09 07:53:52;;;;;;;;;;;;;;;25.79;43.54;101377.16;5010228;28;19936;-84
2023/07/09 07:56:17;;;;;;;;;;;;;;;25.79;42.80;101377.16;5017761;28;20554;-84
2023/07/09 07:58:43;;;;;;;;;;;;;;;25.84;42.83;101370.91;5028733;28;19947;-85
2023/07/09 08:01:08;;;;;;;;;;;;;;;25.96;43.08;101378.97;5027339;28;19917;-84
2023/07/09 08:03:34;;;;;;;;;;;;;;;25.93;42.58;101381.63;5032366;28;19913;-84
2023/07/09 08:05:59;;;;;;;;;;;;;;;25.95;42.54;101380.78;5020688;28;20301;-83
2023/07/09 08:08:25;;;;;;;;;;;;;;;26.02;42.80;101368.28;5010344;28;20016;-83
2023/07/09 08:10:51;;;;;;;;;;;;;;;26.08;42.78;101380.78;5022948;28;20469;-82
2023/07/09 08:13:16;;;;;;;;;;;;;;;26.11;43.07;101378.97;5029817;28;19917;-82
2023/07/09 08:15:42;;;;;;;;;;;;;;;26.13;42.77;101374.50;5025375;28;20001;-81
2023/07/09 08:18:07;;;;;;;;;;;;;;;26.16;42.79;101374.53;5021401;28;19917;-81
2023/07/09 08:20:33;;;;;;;;;;;;;;;26.17;42.95;101368.25;5018618;28;19936;-81
2023/07/09 08:23:01;;;;;;;;;;;;;;;26.31;42.80;101362.91;5013190;28;20231;-81
2023/07/09 08:25:27;;;;;;;;;;;;;;;26.37;42.62;101357.53;5030017;28;19960;-83
2023/07/09 08:27:52;;;;;;;;;;;;;;;26.28;42.52;101370.03;5012867;28;20377;-82
2023/07/09 08:30:17;;;;;;;;;;;;;;;26.20;42.22;101372.72;5026326;28;19922;-83
2023/07/09 08:32:43;;;;;;;;;;;;;;;26.25;42.04;101370.06;5024164;28;20016;-82
2023/07/09 08:35:10;;;;;;;;;;;;;;;26.20;42.58;101370.94;5026107;28;20338;-83
2023/07/09 08:37:35;;;;;;;;;;;;;;;26.18;42.09;101369.16;5023128;28;19913;-82
2023/07/09 08:40:01;;;;;;;;;;;;;;;26.27;42.13;101374.50;5016504;28;19913;-83
2023/07/09 08:42:31;;;;;;;;;;;;;;;26.32;41.97;101366.47;5029601;28;20420;-82
2023/07/09 08:45:00;;;;;;;;;;;;;;;26.25;41.58;101367.38;5000171;28;19925;-82
2023/07/09 08:47:32;;;;;;;;;;;;;;;26.29;41.55;101369.13;5028365;28;19917;-82
2023/07/09 08:49:58;;;;;;;;;;;;;;;26.30;41.42;101368.25;5028395;28;19921;-82
2023/07/09 08:52:24;;;;;;;;;;;;;;;26.35;42.03;101377.16;5016172;28;20361;-82
2023/07/09 08:54:49;;;;;;;;;;;;;;;26.34;41.19;101372.72;5021957;28;20019;-82
2023/07/09 08:57:23;;;;;;;;;;;;;;;26.39;41.46;101377.19;4997603;28;19918;-82
2023/07/09 08:59:49;;;;;;;;;;;;;;;26.41;41.43;101374.47;4995719;28;19969;-83
2023/07/09 09:02:26;;;;;;;;;;;;;;;26.53;41.27;101357.50;5010449;28;20008;-83
2023/07/09 09:04:51;;;;;;;;;;;;;;;26.64;41.18;101376.25;5025415;28;20385;-83
2023/07/09 09:07:18;;;;;;;;;;;;;;;26.45;41.62;101375.38;5019832;28;20004;-84
2023/07/09 09:09:51;;;;;;;;;;;;;;;26.51;41.17;101356.59;5008262;28;20008;-83
2023/07/09 09:12:21;;;;;;;;;;;;;;;26.49;40.73;101361.06;5016673;28;19918;-82
2023/07/09 09:14:49;;;;;;;;;;;;;;;26.59;40.92;101371.78;5017354;28;19959;-82
2023/07/09 09:17:16;;;;;;;;;;;;;;;26.71;41.09;101375.31;5025564;28;19913;-84
2023/07/09 09:19:50;;;;;;;;;;;;;;;26.62;41.15;101378.03;5033962;28;19925;-83
2023/07/09 09:22:18;;;;;;;;;;;;;;;26.63;40.97;101371.78;5034147;28;19928;-82
2023/07/09 09:24:46;;;;;;;;;;;;;;;26.68;41.24;101370.00;5012666;28;19940;-83
2023/07/09 09:27:12;;;;;;;;;;;;;;;26.69;41.04;101375.34;5026353;28;19917;-83
2023/07/09 09:29:40;;;;;;;;;;;;;;;26.89;40.60;101366.34;5024805;28;20392;-84
2023/07/09 09:32:31;;;;;;;;;;;;;;;26.82;41.09;101360.13;5029318;28;19917;-85
2023/07/09 09:34:57;;;;;;;;;;;;;;;26.91;40.90;101375.28;5014256;28;19917;-87
2023/07/09 09:37:27;;;;;;;;;;;;;;;26.71;40.65;101375.31;5011885;28;19990;-83
2023/07/09 09:39:53;;;;;;;;;;;;;;;26.66;40.57;101391.41;5014774;28;19928;-84
2023/07/09 09:42:18;;;;;;;;;;;;;;;26.83;40.52;101374.41;5017483;28;19921;-85
2023/07/09 09:44:44;;;;;;;;;;;;;;;26.89;40.63;101377.97;5012192;28;19920;-82
2023/07/09 09:47:10;;;;;;;;;;;;;;;26.91;40.56;101381.53;5012370;28;19913;-82
2023/07/09 09:49:39;;;;;;;;;;;;;;;26.78;40.82;101383.34;5022886;28;20440;-83
2023/07/09 09:52:06;;;;;;;;;;;;;;;26.73;40.96;101386.94;5015908;28;19921;-83
2023/07/09 09:54:32;;;;;;;;;;;;;;;26.96;40.46;101386.84;4990958;28;20409;-83
2023/07/09 09:56:57;;;;;;;;;;;;;;;27.01;40.52;101380.59;5028551;28;20011;-82
2023/07/09 09:59:33;;;;;;;;;;;;;;;27.00;40.32;101380.59;5025959;28;19917;-82
2023/07/09 10:02:05;;;;;;;;;;;;;;;26.95;40.70;101382.41;5008826;28;19960;-83
2023/07/09 10:04:31;;;;;;;;;;;;;;;26.92;40.26;101371.69;4994689;28;20317;-82
2023/07/09 10:06:58;;;;;;;;;;;;;;;26.96;40.63;101376.13;5007814;28;19927;-83
2023/07/09 10:09:26;;;;;;;;;;;;;;;27.00;40.32;101375.22;4992269;28;19920;-82
2023/07/09 10:11:55;;;;;;;;;;;;;;;27.01;40.72;101358.25;5011416;28;19937;-82
2023/07/09 10:14:24;;;;;;;;;;;;;;;27.12;40.46;101367.13;5018072;28;20008;-81
2023/07/09 10:16:50;;;;;;;;;;;;;;;27.21;40.31;101350.97;5027096;28;20290;-82
2023/07/09 10:19:24;;;;;;;;;;;;;;;27.10;40.20;101370.72;5011391;28;19965;-82
2023/07/09 10:21:50;;;;;;;;;;;;;;;27.07;40.63;101374.28;5013268;28;19929;-83
2023/07/09 10:24:20;;;;;;;;;;;;;;;26.92;39.93;101364.53;5030583;28;19917;-84
2023/07/09 10:26:52;;;;;;;;;;;;;;;26.90;40.22;101370.78;5010626;28;20346;-84
2023/07/09 10:29:23;;;;;;;;;;;;;;;27.08;40.26;101346.59;4993919;28;19946;-82
2023/07/09 10:31:50;;;;;;;;;;;;;;;27.13;40.24;101347.44;5029798;28;19924;-84
2023/07/09 10:34:18;;;;;;;;;;;;;;;27.18;40.33;101352.81;5000787;28;19929;-82
2023/07/09 10:36:50;;;;;;;;;;;;;;;27.22;40.00;101349.25;5030197;28;19940;-84
2023/07/09 10:39:30;;;;;;;;;;;;;;;27.17;40.33;101349.22;5021872;28;19965;-84
2023/07/09 10:41:56;;;;;;;;;;;;;;;27.19;40.47;101341.19;5012565;28;20433;-82
2023/07/09 10:44:42;;;;;;;;;;;;;;;27.19;40.21;101352.78;5012382;28;20035;-82
2023/07/09 10:47:12;;;;;;;;;;;;;;;27.18;40.48;101347.44;5025731;28;19928;-83
2023/07/09 10:49:38;;;;;;;;;;;;;;;27.25;40.16;101353.69;5015269;28;20321;-82
2023/07/09 10:52:24;;;;;;;;;;;;;;;27.23;40.41;101351.03;5013576;28;19924;-82
2023/07/09 10:54:55;;;;;;;;;;;;;;;27.28;40.19;101359.03;5024353;28;20306;-85
2023/07/09 10:57:29;;;;;;;;;;;;;;;27.28;40.17;101359.91;5025511;28;19939;-82
2023/07/09 10:59:55;;;;;;;;;;;;;;;27.24;39.96;101362.63;5009357;28;19917;-83
2023/07/09 11:02:29;;;;;;;;;;;;;;;27.30;40.18;101354.56;5029819;28;19979;-83
2023/07/09 11:05:01;;;;;;;;;;;;;;;27.30;40.34;101351.88;5004779;28;19972;-83
2023/07/09 11:07:27;;;;;;;;;;;;;;;27.33;40.25;101351.88;5023856;28;19943;-82
2023/07/09 11:09:54;;;;;;;;;;;;;;;27.32;40.13;101348.28;5027585;28;20379;-83
2023/07/09 11:12:48;;;;;;;;;;;;;;;27.23;40.13;101353.69;5030048;28;19975;-82
2023/07/09 11:15:16;;;;;;;;;;;;;;;27.33;40.37;101367.97;5023666;28;19924;-82
2023/07/09 11:17:47;;;;;;;;;;;;;;;27.39;40.30;101373.28;5019587;28;19952;-83
2023/07/09 11:20:20;;;;;;;;;;;;;;;27.31;40.06;101343.81;5011229;28;20008;-82
2023/07/09 11:22:53;;;;;;;;;;;;;;;27.50;40.16;101359.81;5001439;28;19979;-83
2023/07/09 11:25:27;;;;;;;;;;;;;;;27.52;40.15;101364.25;5023086;28;19975;-83
2023/07/09 11:28:10;;;;;;;;;;;;;;;27.50;40.24;101357.13;5029050;28;19921;-83
2023/07/09 11:30:52;;;;;;;;;;;;;;;27.48;39.86;101356.25;5021995;28;19917;-83
2023/07/09 11:33:18;;;;;;;;;;;;;;;27.41;40.00;101342.88;5020008;28;20397;-84
2023/07/09 11:35:46;;;;;;;;;;;;;;;27.38;39.95;101368.81;5016398;28;19975;-83
2023/07/09 11:38:22;;;;;;;;;;;;;;;27.49;39.80;101355.34;5004406;28;19917;-82
2023/07/09 11:40:48;;;;;;;;;;;;;;;27.61;39.75;101361.50;5004696;28;19920;-82
2023/07/09 11:43:26;;;;;;;;;;;;;;;27.58;39.55;101352.56;4994942;28;19979;-82
2023/07/09 11:45:52;;;;;;;;;;;;;;;27.49;39.77;101366.06;5026480;28;19917;-83
2023/07/09 11:48:25;;;;;;;;;;;;;;;27.41;40.07;101355.38;5027242;28;19939;-82
2023/07/09 11:50:51;;;;;;;;;;;;;;;27.51;39.66;101356.22;4995514;28;19925;-83
2023/07/09 11:53:21;;;;;;;;;;;;;;;27.63;39.69;101349.88;5024665;28;20379;-82
2023/07/09 11:55:47;;;;;;;;;;;;;;;27.64;39.48;101348.97;4989339;28;19917;-83
2023/07/09 11:58:13;;;;;;;;;;;;;;;27.67;39.90;101346.28;5024310;28;19928;-82
2023/07/09 12:00:48;;;;;;;;;;;;;;;27.63;39.71;101334.66;4995547;28;19922;-82
2023/07/09 12:03:19;;;;;;;;;;;;;;;27.62;39.88;101343.59;5024473;28;19928;-83
2023/07/09 12:05:51;;;;;;;;;;;;;;;27.67;39.96;101344.47;5029152;28;19975;-82
2023/07/09 12:08:16;;;;;;;;;;;;;;;27.71;39.71;101348.03;5023461;28;19975;-82
2023/07/09 12:10:42;;;;;;;;;;;;;;;27.71;39.66;101342.66;5013557;28;20386;-83
2023/07/09 12:13:11;;;;;;;;;;;;;;;27.71;39.79;101348.03;5015569;28;19920;-81
2023/07/09 12:15:38;;;;;;;;;;;;;;;27.71;39.75;101337.31;5015814;28;19917;-82
2023/07/09 12:18:08;;;;;;;;;;;;;;;27.66;39.53;101344.47;5017434;28;20442;-82
2023/07/09 12:20:35;;;;;;;;;;;;;;;27.66;39.45;101344.47;5011824;28;19921;-83
2023/07/09 12:23:00;;;;;;;;;;;;;;;27.58;38.99;101344.53;5029290;28;19956;-83
2023/07/09 12:25:27;;;;;;;;;;;;;;;27.65;39.27;101334.66;5009194;28;19964;-82
2023/07/09 12:27:53;;;;;;;;;;;;;;;27.60;39.17;101335.59;4999581;28;20387;-81
2023/07/09 12:30:18;;;;;;;;;;;;;;;27.58;39.32;101341.84;5029454;28;20448;-82
2023/07/09 12:32:46;;;;;;;;;;;;;;;27.69;39.21;101336.44;5011849;28;19919;-81
2023/07/09 12:35:12;;;;;;;;;;;;;;;27.79;38.99;101340.78;5025511;28;19924;-81
2023/07/09 12:37:37;;;;;;;;;;;;;;;27.80;39.28;101334.53;5026224;28;19917;-82